sensor_id;sensor_type;location;lat;lon;timestamp;temperature;humidity
23991;DHT22;12205;50.600;4.608;2023-07-22T00:00:58;15.40;99.90
23991;DHT22;12205;50.600;4.608;2023-07-22T00:03:26;15.30;99.90
23991;DHT22;12205;50.600;4.608;2023-07-22T00:06:02;15.30;99.90
23991;DHT22;12205;50.600;4.608;2023-07-22T00:08:32;15.20;99.90
23991;DHT22;12205;50.600;4.608;2023-07-22T00:11:00;15.20;99.90
23991;DHT22;12205;50.600;4.608;2023-07-22T00:13:27;15.10;99.90
23991;DHT22;12205;50.600;4.608;2023-07-22T00:15:55;15.10;99.90
23991;DHT22;12205;50.600;4.608;2023-07-22T00:18:24;15.10;99.90
23991;DHT22;12205;50.600;4.608;2023-07-22T00:20:53;15.10;99.90
23991;DHT22;12205;50.600;4.608;2023-07-22T00:23:20;15.00;99.90
23991;DHT22;12205;50.600;4.608;2023-07-22T00:25:49;15.00;99.90
23991;DHT22;12205;50.600;4.608;2023-07-22T00:28:18;15.00;99.90
23991;DHT22;12205;50.600;4.608;2023-07-22T00:30:45;15.00;99.90
23991;DHT22;12205;50.600;4.608;2023-07-22T00:33:14;14.90;99.90
23991;DHT22;12205;50.600;4.608;2023-07-22T00:35:42;14.80;99.90
23991;DHT22;12205;50.600;4.608;2023-07-22T00:38:09;14.80;99.90
23991;DHT22;12205;50.600;4.608;2023-07-22T00:40:36;14.80;99.90
23991;DHT22;12205;50.600;4.608;2023-07-22T00:43:04;14.70;99.90
23991;DHT22;12205;50.600;4.608;2023-07-22T00:45:33;14.70;99.90
23991;DHT22;12205;50.600;4.608;2023-07-22T00:48:00;14.70;99.90
23991;DHT22;12205;50.600;4.608;2023-07-22T00:50:27;14.60;99.90
23991;DHT22;12205;50.600;4.608;2023-07-22T00:52:54;14.60;99.90
23991;DHT22;12205;50.600;4.608;2023-07-22T00:55:21;14.60;99.90
23991;DHT22;12205;50.600;4.608;2023-07-22T00:57:49;14.60;99.90
23991;DHT22;12205;50.600;4.608;2023-07-22T01:00:18;14.50;99.90
23991;DHT22;12205;50.600;4.608;2023-07-22T01:02:45;14.50;99.90
23991;DHT22;12205;50.600;4.608;2023-07-22T01:05:12;14.50;99.90
23991;DHT22;12205;50.600;4.608;2023-07-22T01:07:40;14.40;99.90
23991;DHT22;12205;50.600;4.608;2023-07-22T01:10:07;14.40;99.90
23991;DHT22;12205;50.600;4.608;2023-07-22T01:12:35;14.40;99.90
23991;DHT22;12205;50.600;4.608;2023-07-22T01:15:02;14.40;99.90
23991;DHT22;12205;50.600;4.608;2023-07-22T01:17:35;14.40;99.90
23991;DHT22;12205;50.600;4.608;2023-07-22T01:20:04;14.30;99.90
23991;DHT22;12205;50.600;4.608;2023-07-22T01:22:33;14.30;99.90
23991;DHT22;12205;50.600;4.608;2023-07-22T01:25:03;14.30;99.90
23991;DHT22;12205;50.600;4.608;2023-07-22T01:27:32;14.20;99.90
23991;DHT22;12205;50.600;4.608;2023-07-22T01:30:00;14.30;99.90
23991;DHT22;12205;50.600;4.608;2023-07-22T01:32:29;14.20;99.90
23991;DHT22;12205;50.600;4.608;2023-07-22T01:34:56;14.20;99.90
23991;DHT22;12205;50.600;4.608;2023-07-22T01:37:23;14.10;99.90
23991;DHT22;12205;50.600;4.608;2023-07-22T01:39:50;14.10;99.90
23991;DHT22;12205;50.600;4.608;2023-07-22T01:42:20;14.10;99.90
23991;DHT22;12205;50.600;4.608;2023-07-22T01:44:47;14.00;99.90
23991;DHT22;12205;50.600;4.608;2023-07-22T01:47:14;14.00;99.90
23991;DHT22;12205;50.600;4.608;2023-07-22T01:49:41;14.00;99.90
23991;DHT22;12205;50.600;4.608;2023-07-22T01:52:09;14.00;99.90
23991;DHT22;12205;50.600;4.608;2023-07-22T01:54:37;13.90;99.90
23991;DHT22;12205;50.600;4.608;2023-07-22T01:57:04;13.90;99.90
23991;DHT22;12205;50.600;4.608;2023-07-22T01:59:33;13.90;99.90
23991;DHT22;12205;50.600;4.608;2023-07-22T02:02:00;13.90;99.90
23991;DHT22;12205;50.600;4.608;2023-07-22T02:04:27;13.80;99.90
23991;DHT22;12205;50.600;4.608;2023-07-22T02:06:54;13.80;99.90
23991;DHT22;12205;50.600;4.608;2023-07-22T02:09:22;13.80;99.90
23991;DHT22;12205;50.600;4.608;2023-07-22T02:11:49;13.70;99.90
23991;DHT22;12205;50.600;4.608;2023-07-22T02:14:16;13.70;99.90
23991;DHT22;12205;50.600;4.608;2023-07-22T02:16:44;13.70;99.90
23991;DHT22;12205;50.600;4.608;2023-07-22T02:19:11;13.60;99.90
23991;DHT22;12205;50.600;4.608;2023-07-22T02:21:40;13.60;99.90
23991;DHT22;12205;50.600;4.608;2023-07-22T02:24:08;13.60;99.90
23991;DHT22;12205;50.600;4.608;2023-07-22T02:26:35;13.50;99.90
23991;DHT22;12205;50.600;4.608;2023-07-22T02:29:03;13.50;99.90
23991;DHT22;12205;50.600;4.608;2023-07-22T02:31:30;13.50;99.90
23991;DHT22;12205;50.600;4.608;2023-07-22T02:33:58;13.40;99.90
23991;DHT22;12205;50.600;4.608;2023-07-22T02:36:26;13.50;99.90
23991;DHT22;12205;50.600;4.608;2023-07-22T02:38:53;13.40;99.90
23991;DHT22;12205;50.600;4.608;2023-07-22T02:41:20;13.40;99.90
23991;DHT22;12205;50.600;4.608;2023-07-22T02:43:47;13.30;99.90
23991;DHT22;12205;50.600;4.608;2023-07-22T02:46:14;13.30;99.90
23991;DHT22;12205;50.600;4.608;2023-07-22T02:48:41;13.20;99.90
23991;DHT22;12205;50.600;4.608;2023-07-22T02:51:10;13.30;99.90
23991;DHT22;12205;50.600;4.608;2023-07-22T02:53:37;13.20;99.90
23991;DHT22;12205;50.600;4.608;2023-07-22T02:56:05;13.20;99.90
23991;DHT22;12205;50.600;4.608;2023-07-22T02:58:33;13.20;99.90
23991;DHT22;12205;50.600;4.608;2023-07-22T03:01:03;13.20;99.90
23991;DHT22;12205;50.600;4.608;2023-07-22T03:03:30;13.20;99.90
23991;DHT22;12205;50.600;4.608;2023-07-22T03:05:59;13.10;99.90
23991;DHT22;12205;50.600;4.608;2023-07-22T03:08:27;13.10;99.90
23991;DHT22;12205;50.600;4.608;2023-07-22T03:10:55;13.10;99.90
23991;DHT22;12205;50.600;4.608;2023-07-22T03:13:22;13.10;99.90
23991;DHT22;12205;50.600;4.608;2023-07-22T03:15:49;13.10;99.90
23991;DHT22;12205;50.600;4.608;2023-07-22T03:18:16;13.10;99.90
23991;DHT22;12205;50.600;4.608;2023-07-22T03:20:43;13.00;99.90
23991;DHT22;12205;50.600;4.608;2023-07-22T03:23:10;13.00;99.90
23991;DHT22;12205;50.600;4.608;2023-07-22T03:25:39;13.00;99.90
23991;DHT22;12205;50.600;4.608;2023-07-22T03:28:07;13.00;99.90
23991;DHT22;12205;50.600;4.608;2023-07-22T03:30:34;12.90;99.90
23991;DHT22;12205;50.600;4.608;2023-07-22T03:33:01;12.90;99.90
23991;DHT22;12205;50.600;4.608;2023-07-22T03:35:28;12.90;99.90
23991;DHT22;12205;50.600;4.608;2023-07-22T03:37:56;12.90;99.90
23991;DHT22;12205;50.600;4.608;2023-07-22T03:40:23;12.90;99.90
23991;DHT22;12205;50.600;4.608;2023-07-22T03:42:56;12.80;99.90
23991;DHT22;12205;50.600;4.608;2023-07-22T03:45:24;12.80;99.90
23991;DHT22;12205;50.600;4.608;2023-07-22T03:47:52;12.80;99.90
23991;DHT22;12205;50.600;4.608;2023-07-22T03:50:20;12.80;99.90
23991;DHT22;12205;50.600;4.608;2023-07-22T03:52:47;12.70;99.90
23991;DHT22;12205;50.600;4.608;2023-07-22T03:55:15;12.70;99.90
23991;DHT22;12205;50.600;4.608;2023-07-22T03:57:42;12.70;99.90
23991;DHT22;12205;50.600;4.608;2023-07-22T04:00:11;12.70;99.90
23991;DHT22;12205;50.600;4.608;2023-07-22T04:02:39;12.60;99.90
23991;DHT22;12205;50.600;4.608;2023-07-22T04:05:08;12.60;99.90
23991;DHT22;12205;50.600;4.608;2023-07-22T04:07:36;12.60;99.90
23991;DHT22;12205;50.600;4.608;2023-07-22T04:10:03;12.60;99.90
23991;DHT22;12205;50.600;4.608;2023-07-22T04:12:31;12.50;99.90
23991;DHT22;12205;50.600;4.608;2023-07-22T04:14:59;12.60;99.90
23991;DHT22;12205;50.600;4.608;2023-07-22T04:17:29;12.60;99.90
23991;DHT22;12205;50.600;4.608;2023-07-22T04:19:56;12.50;99.90
23991;DHT22;12205;50.600;4.608;2023-07-22T04:22:24;12.50;99.90
23991;DHT22;12205;50.600;4.608;2023-07-22T04:24:51;12.50;99.90
23991;DHT22;12205;50.600;4.608;2023-07-22T04:27:19;12.60;99.90
23991;DHT22;12205;50.600;4.608;2023-07-22T04:29:47;12.50;99.90
23991;DHT22;12205;50.600;4.608;2023-07-22T04:32:14;12.50;99.90
23991;DHT22;12205;50.600;4.608;2023-07-22T04:34:42;12.60;99.90
23991;DHT22;12205;50.600;4.608;2023-07-22T04:37:09;12.60;99.90
23991;DHT22;12205;50.600;4.608;2023-07-22T04:39:37;12.60;99.90
23991;DHT22;12205;50.600;4.608;2023-07-22T04:42:04;12.60;99.90
23991;DHT22;12205;50.600;4.608;2023-07-22T04:44:31;12.70;99.90
23991;DHT22;12205;50.600;4.608;2023-07-22T04:46:58;12.70;99.90
23991;DHT22;12205;50.600;4.608;2023-07-22T04:49:25;12.80;99.90
23991;DHT22;12205;50.600;4.608;2023-07-22T04:51:54;12.80;99.90
23991;DHT22;12205;50.600;4.608;2023-07-22T04:54:21;12.80;99.90
23991;DHT22;12205;50.600;4.608;2023-07-22T04:56:48;12.90;99.90
23991;DHT22;12205;50.600;4.608;2023-07-22T04:59:15;12.90;99.90
23991;DHT22;12205;50.600;4.608;2023-07-22T05:01:42;12.90;99.90
23991;DHT22;12205;50.600;4.608;2023-07-22T05:04:10;13.00;99.90
23991;DHT22;12205;50.600;4.608;2023-07-22T05:06:37;13.00;99.90
23991;DHT22;12205;50.600;4.608;2023-07-22T05:09:05;13.00;99.90
23991;DHT22;12205;50.600;4.608;2023-07-22T05:11:33;13.10;99.90
23991;DHT22;12205;50.600;4.608;2023-07-22T05:14:00;13.10;99.90
23991;DHT22;12205;50.600;4.608;2023-07-22T05:16:27;13.10;99.90
23991;DHT22;12205;50.600;4.608;2023-07-22T05:18:54;13.20;99.90
23991;DHT22;12205;50.600;4.608;2023-07-22T05:21:21;13.20;99.90
23991;DHT22;12205;50.600;4.608;2023-07-22T05:23:48;13.30;99.90
23991;DHT22;12205;50.600;4.608;2023-07-22T05:26:17;13.40;99.90
23991;DHT22;12205;50.600;4.608;2023-07-22T05:28:44;13.50;99.90
23991;DHT22;12205;50.600;4.608;2023-07-22T05:31:11;13.60;99.90
23991;DHT22;12205;50.600;4.608;2023-07-22T05:33:38;13.70;99.90
23991;DHT22;12205;50.600;4.608;2023-07-22T05:36:05;13.80;99.90
23991;DHT22;12205;50.600;4.608;2023-07-22T05:38:32;13.80;99.90
23991;DHT22;12205;50.600;4.608;2023-07-22T05:40:59;13.90;99.90
23991;DHT22;12205;50.600;4.608;2023-07-22T05:43:28;13.90;99.90
23991;DHT22;12205;50.600;4.608;2023-07-22T05:45:55;14.00;99.90
23991;DHT22;12205;50.600;4.608;2023-07-22T05:48:22;14.10;99.90
23991;DHT22;12205;50.600;4.608;2023-07-22T05:50:49;14.20;99.90
23991;DHT22;12205;50.600;4.608;2023-07-22T05:53:17;14.30;99.90
23991;DHT22;12205;50.600;4.608;2023-07-22T05:55:44;14.40;99.90
23991;DHT22;12205;50.600;4.608;2023-07-22T05:58:15;14.50;99.90
23991;DHT22;12205;50.600;4.608;2023-07-22T06:00:45;14.60;99.90
23991;DHT22;12205;50.600;4.608;2023-07-22T06:03:12;14.70;99.90
23991;DHT22;12205;50.600;4.608;2023-07-22T06:05:39;14.80;99.90
23991;DHT22;12205;50.600;4.608;2023-07-22T06:08:07;15.00;99.90
23991;DHT22;12205;50.600;4.608;2023-07-22T06:10:34;15.10;99.90
23991;DHT22;12205;50.600;4.608;2023-07-22T06:13:03;15.20;99.90
23991;DHT22;12205;50.600;4.608;2023-07-22T06:15:30;15.30;99.90
23991;DHT22;12205;50.600;4.608;2023-07-22T06:17:59;15.40;99.90
23991;DHT22;12205;50.600;4.608;2023-07-22T06:20:27;15.50;99.90
23991;DHT22;12205;50.600;4.608;2023-07-22T06:22:54;15.50;99.90
23991;DHT22;12205;50.600;4.608;2023-07-22T06:25:22;15.50;99.90
23991;DHT22;12205;50.600;4.608;2023-07-22T06:27:49;15.60;99.90
23991;DHT22;12205;50.600;4.608;2023-07-22T06:30:16;15.60;99.90
23991;DHT22;12205;50.600;4.608;2023-07-22T06:32:44;15.70;99.90
23991;DHT22;12205;50.600;4.608;2023-07-22T06:35:12;15.70;99.90
23991;DHT22;12205;50.600;4.608;2023-07-22T06:37:39;15.80;99.90
23991;DHT22;12205;50.600;4.608;2023-07-22T06:40:07;15.90;99.90
23991;DHT22;12205;50.600;4.608;2023-07-22T06:42:34;16.00;99.90
23991;DHT22;12205;50.600;4.608;2023-07-22T06:45:02;16.10;99.90
23991;DHT22;12205;50.600;4.608;2023-07-22T06:47:29;16.20;99.90
23991;DHT22;12205;50.600;4.608;2023-07-22T06:49:56;16.20;99.90
23991;DHT22;12205;50.600;4.608;2023-07-22T06:52:25;16.30;99.90
23991;DHT22;12205;50.600;4.608;2023-07-22T06:54:52;16.30;99.90
23991;DHT22;12205;50.600;4.608;2023-07-22T06:57:19;16.40;99.90
23991;DHT22;12205;50.600;4.608;2023-07-22T06:59:48;16.40;99.90
23991;DHT22;12205;50.600;4.608;2023-07-22T07:02:16;16.60;99.90
23991;DHT22;12205;50.600;4.608;2023-07-22T07:04:43;16.60;99.90
23991;DHT22;12205;50.600;4.608;2023-07-22T07:07:12;16.70;99.90
23991;DHT22;12205;50.600;4.608;2023-07-22T07:09:40;16.80;99.90
23991;DHT22;12205;50.600;4.608;2023-07-22T07:12:08;16.90;99.90
23991;DHT22;12205;50.600;4.608;2023-07-22T07:14:35;17.00;99.90
23991;DHT22;12205;50.600;4.608;2023-07-22T07:17:03;17.00;99.90
23991;DHT22;12205;50.600;4.608;2023-07-22T07:19:30;17.00;99.90
23991;DHT22;12205;50.600;4.608;2023-07-22T07:21:57;17.00;99.90
23991;DHT22;12205;50.600;4.608;2023-07-22T07:24:24;17.10;99.90
23991;DHT22;12205;50.600;4.608;2023-07-22T07:26:54;17.10;99.90
23991;DHT22;12205;50.600;4.608;2023-07-22T07:29:21;17.20;99.90
23991;DHT22;12205;50.600;4.608;2023-07-22T07:31:48;17.20;99.90
23991;DHT22;12205;50.600;4.608;2023-07-22T07:34:15;17.30;99.90
23991;DHT22;12205;50.600;4.608;2023-07-22T07:36:42;17.40;99.90
23991;DHT22;12205;50.600;4.608;2023-07-22T07:39:09;17.50;99.90
23991;DHT22;12205;50.600;4.608;2023-07-22T07:41:36;17.60;99.90
23991;DHT22;12205;50.600;4.608;2023-07-22T07:44:05;17.60;99.90
23991;DHT22;12205;50.600;4.608;2023-07-22T07:46:32;17.70;99.90
23991;DHT22;12205;50.600;4.608;2023-07-22T07:49:00;17.80;99.90
23991;DHT22;12205;50.600;4.608;2023-07-22T07:51:30;17.80;99.90
23991;DHT22;12205;50.600;4.608;2023-07-22T07:53:59;17.80;99.90
23991;DHT22;12205;50.600;4.608;2023-07-22T07:56:26;17.90;99.90
23991;DHT22;12205;50.600;4.608;2023-07-22T07:58:54;17.80;99.90
23991;DHT22;12205;50.600;4.608;2023-07-22T08:01:23;17.80;99.90
23991;DHT22;12205;50.600;4.608;2023-07-22T08:03:50;17.80;99.90
23991;DHT22;12205;50.600;4.608;2023-07-22T08:06:17;17.60;99.90
23991;DHT22;12205;50.600;4.608;2023-07-22T08:08:44;17.70;99.90
23991;DHT22;12205;50.600;4.608;2023-07-22T08:11:12;17.80;99.90
23991;DHT22;12205;50.600;4.608;2023-07-22T08:13:41;17.70;99.90
23991;DHT22;12205;50.600;4.608;2023-07-22T08:16:11;17.80;99.90
23991;DHT22;12205;50.600;4.608;2023-07-22T08:18:41;17.90;99.90
23991;DHT22;12205;50.600;4.608;2023-07-22T08:21:09;18.00;99.90
23991;DHT22;12205;50.600;4.608;2023-07-22T08:23:36;18.10;99.90
23991;DHT22;12205;50.600;4.608;2023-07-22T08:26:04;18.20;99.90
23991;DHT22;12205;50.600;4.608;2023-07-22T08:28:32;18.40;99.90
23991;DHT22;12205;50.600;4.608;2023-07-22T08:31:00;18.60;99.90
23991;DHT22;12205;50.600;4.608;2023-07-22T08:33:27;18.70;99.90
23991;DHT22;12205;50.600;4.608;2023-07-22T08:35:55;18.70;99.90
23991;DHT22;12205;50.600;4.608;2023-07-22T08:38:22;18.70;99.90
23991;DHT22;12205;50.600;4.608;2023-07-22T08:40:50;18.80;99.90
23991;DHT22;12205;50.600;4.608;2023-07-22T08:43:20;18.90;99.90
23991;DHT22;12205;50.600;4.608;2023-07-22T08:45:51;18.90;99.90
23991;DHT22;12205;50.600;4.608;2023-07-22T08:48:25;19.00;99.90
23991;DHT22;12205;50.600;4.608;2023-07-22T08:50:56;19.20;99.90
23991;DHT22;12205;50.600;4.608;2023-07-22T08:53:29;19.30;99.90
23991;DHT22;12205;50.600;4.608;2023-07-22T08:55:59;19.30;99.90
23991;DHT22;12205;50.600;4.608;2023-07-22T08:58:27;19.10;99.90
23991;DHT22;12205;50.600;4.608;2023-07-22T09:00:56;19.00;99.90
23991;DHT22;12205;50.600;4.608;2023-07-22T09:03:24;18.90;99.90
23991;DHT22;12205;50.600;4.608;2023-07-22T09:05:51;19.00;99.90
23991;DHT22;12205;50.600;4.608;2023-07-22T09:08:20;19.00;99.90
23991;DHT22;12205;50.600;4.608;2023-07-22T09:10:48;19.00;99.90
23991;DHT22;12205;50.600;4.608;2023-07-22T09:13:15;19.10;99.90
23991;DHT22;12205;50.600;4.608;2023-07-22T09:15:46;19.30;99.90
23991;DHT22;12205;50.600;4.608;2023-07-22T09:18:14;19.40;99.90
23991;DHT22;12205;50.600;4.608;2023-07-22T09:20:41;19.40;99.90
23991;DHT22;12205;50.600;4.608;2023-07-22T09:23:08;19.50;99.90
23991;DHT22;12205;50.600;4.608;2023-07-22T09:25:37;19.40;99.90
23991;DHT22;12205;50.600;4.608;2023-07-22T09:28:04;19.50;99.90
23991;DHT22;12205;50.600;4.608;2023-07-22T09:30:34;19.50;99.90
23991;DHT22;12205;50.600;4.608;2023-07-22T09:33:05;19.60;99.90
23991;DHT22;12205;50.600;4.608;2023-07-22T09:35:44;19.50;99.90
23991;DHT22;12205;50.600;4.608;2023-07-22T09:38:13;19.50;99.90
23991;DHT22;12205;50.600;4.608;2023-07-22T09:40:42;19.60;99.90
23991;DHT22;12205;50.600;4.608;2023-07-22T09:43:11;19.70;99.90
23991;DHT22;12205;50.600;4.608;2023-07-22T09:45:38;19.80;99.90
23991;DHT22;12205;50.600;4.608;2023-07-22T09:48:06;19.90;99.90
23991;DHT22;12205;50.600;4.608;2023-07-22T09:50:36;20.00;99.90
23991;DHT22;12205;50.600;4.608;2023-07-22T09:53:04;20.10;99.90
23991;DHT22;12205;50.600;4.608;2023-07-22T09:55:32;20.20;99.90
23991;DHT22;12205;50.600;4.608;2023-07-22T09:58:02;20.30;99.90
23991;DHT22;12205;50.600;4.608;2023-07-22T10:00:32;20.30;99.90
23991;DHT22;12205;50.600;4.608;2023-07-22T10:03:01;20.30;99.90
23991;DHT22;12205;50.600;4.608;2023-07-22T10:05:33;20.30;99.90
23991;DHT22;12205;50.600;4.608;2023-07-22T10:08:02;20.40;99.90
23991;DHT22;12205;50.600;4.608;2023-07-22T10:10:33;20.40;99.90
23991;DHT22;12205;50.600;4.608;2023-07-22T10:13:03;20.30;99.90
23991;DHT22;12205;50.600;4.608;2023-07-22T10:15:32;20.40;99.90
23991;DHT22;12205;50.600;4.608;2023-07-22T10:18:02;20.40;99.90
23991;DHT22;12205;50.600;4.608;2023-07-22T10:20:31;20.50;99.90
23991;DHT22;12205;50.600;4.608;2023-07-22T10:23:01;20.50;99.90
23991;DHT22;12205;50.600;4.608;2023-07-22T10:25:30;20.50;99.90
23991;DHT22;12205;50.600;4.608;2023-07-22T10:27:58;20.50;99.90
23991;DHT22;12205;50.600;4.608;2023-07-22T10:30:26;20.60;99.90
23991;DHT22;12205;50.600;4.608;2023-07-22T10:32:54;20.60;99.90
23991;DHT22;12205;50.600;4.608;2023-07-22T10:35:25;20.50;99.90
23991;DHT22;12205;50.600;4.608;2023-07-22T10:38:08;20.60;99.90
23991;DHT22;12205;50.600;4.608;2023-07-22T10:40:45;20.60;99.90
23991;DHT22;12205;50.600;4.608;2023-07-22T10:43:15;20.70;99.90
23991;DHT22;12205;50.600;4.608;2023-07-22T10:45:50;20.90;99.90
23991;DHT22;12205;50.600;4.608;2023-07-22T10:48:19;20.90;99.90
23991;DHT22;12205;50.600;4.608;2023-07-22T10:50:48;20.90;99.90
23991;DHT22;12205;50.600;4.608;2023-07-22T10:53:27;21.00;99.90
23991;DHT22;12205;50.600;4.608;2023-07-22T10:56:06;21.10;99.90
23991;DHT22;12205;50.600;4.608;2023-07-22T10:58:58;21.00;99.90
23991;DHT22;12205;50.600;4.608;2023-07-22T11:01:35;21.10;99.90
23991;DHT22;12205;50.600;4.608;2023-07-22T11:04:20;21.30;99.90
23991;DHT22;12205;50.600;4.608;2023-07-22T11:06:57;21.40;99.90
23991;DHT22;12205;50.600;4.608;2023-07-22T11:09:41;21.50;99.90
23991;DHT22;12205;50.600;4.608;2023-07-22T11:12:13;21.60;99.90
23991;DHT22;12205;50.600;4.608;2023-07-22T11:14:46;21.70;99.90
23991;DHT22;12205;50.600;4.608;2023-07-22T11:17:17;21.70;99.90
23991;DHT22;12205;50.600;4.608;2023-07-22T11:19:45;21.70;99.90
23991;DHT22;12205;50.600;4.608;2023-07-22T11:22:13;21.70;99.90
23991;DHT22;12205;50.600;4.608;2023-07-22T11:24:40;21.60;99.90
23991;DHT22;12205;50.600;4.608;2023-07-22T11:27:08;21.60;99.90
23991;DHT22;12205;50.600;4.608;2023-07-22T11:29:35;21.70;99.90
23991;DHT22;12205;50.600;4.608;2023-07-22T11:32:03;21.80;99.90
23991;DHT22;12205;50.600;4.608;2023-07-22T11:34:32;21.70;99.90
23991;DHT22;12205;50.600;4.608;2023-07-22T11:37:00;21.70;99.90
23991;DHT22;12205;50.600;4.608;2023-07-22T11:39:27;21.90;99.90
23991;DHT22;12205;50.600;4.608;2023-07-22T11:41:59;22.20;99.90
23991;DHT22;12205;50.600;4.608;2023-07-22T11:44:28;22.40;99.90
23991;DHT22;12205;50.600;4.608;2023-07-22T11:46:56;22.60;99.90
23991;DHT22;12205;50.600;4.608;2023-07-22T11:49:26;22.80;99.90
23991;DHT22;12205;50.600;4.608;2023-07-22T11:51:58;22.90;99.90
23991;DHT22;12205;50.600;4.608;2023-07-22T11:54:27;23.20;99.90
23991;DHT22;12205;50.600;4.608;2023-07-22T11:56:55;23.40;99.90
23991;DHT22;12205;50.600;4.608;2023-07-22T11:59:33;23.50;99.90
23991;DHT22;12205;50.600;4.608;2023-07-22T12:02:02;23.50;99.90
23991;DHT22;12205;50.600;4.608;2023-07-22T12:04:31;23.30;99.90
23991;DHT22;12205;50.600;4.608;2023-07-22T12:07:00;23.50;99.90
23991;DHT22;12205;50.600;4.608;2023-07-22T12:09:29;23.60;99.90
23991;DHT22;12205;50.600;4.608;2023-07-22T12:11:57;23.80;99.90
23991;DHT22;12205;50.600;4.608;2023-07-22T12:14:33;24.10;99.90
23991;DHT22;12205;50.600;4.608;2023-07-22T12:17:01;24.30;99.90
23991;DHT22;12205;50.600;4.608;2023-07-22T12:19:29;23.90;99.90
23991;DHT22;12205;50.600;4.608;2023-07-22T12:21:56;23.50;99.90
23991;DHT22;12205;50.600;4.608;2023-07-22T12:24:24;23.20;99.90
23991;DHT22;12205;50.600;4.608;2023-07-22T12:26:53;23.10;99.90
23991;DHT22;12205;50.600;4.608;2023-07-22T12:29:20;23.20;99.90
23991;DHT22;12205;50.600;4.608;2023-07-22T12:31:48;23.10;99.90
23991;DHT22;12205;50.600;4.608;2023-07-22T12:34:15;23.00;99.90
23991;DHT22;12205;50.600;4.608;2023-07-22T12:36:42;23.10;99.90
23991;DHT22;12205;50.600;4.608;2023-07-22T12:39:09;23.30;99.90
23991;DHT22;12205;50.600;4.608;2023-07-22T12:41:38;23.20;99.90
23991;DHT22;12205;50.600;4.608;2023-07-22T12:44:05;23.20;99.90
23991;DHT22;12205;50.600;4.608;2023-07-22T12:46:32;22.90;99.90
23991;DHT22;12205;50.600;4.608;2023-07-22T12:48:59;22.70;99.90
23991;DHT22;12205;50.600;4.608;2023-07-22T12:51:26;22.70;99.90
23991;DHT22;12205;50.600;4.608;2023-07-22T12:53:53;22.70;99.90
23991;DHT22;12205;50.600;4.608;2023-07-22T12:56:20;23.20;99.90
23991;DHT22;12205;50.600;4.608;2023-07-22T12:58:48;23.30;99.90
23991;DHT22;12205;50.600;4.608;2023-07-22T13:01:16;23.30;99.90
23991;DHT22;12205;50.600;4.608;2023-07-22T13:03:43;23.10;99.90
23991;DHT22;12205;50.600;4.608;2023-07-22T13:06:10;22.70;99.90
23991;DHT22;12205;50.600;4.608;2023-07-22T13:08:37;22.70;99.90
23991;DHT22;12205;50.600;4.608;2023-07-22T13:11:04;22.70;99.90
23991;DHT22;12205;50.600;4.608;2023-07-22T13:13:31;23.00;99.90
23991;DHT22;12205;50.600;4.608;2023-07-22T13:16:00;23.40;99.90
23991;DHT22;12205;50.600;4.608;2023-07-22T13:18:27;23.40;99.90
23991;DHT22;12205;50.600;4.608;2023-07-22T13:20:54;23.60;99.90
23991;DHT22;12205;50.600;4.608;2023-07-22T13:23:21;23.80;99.90
23991;DHT22;12205;50.600;4.608;2023-07-22T13:25:48;23.70;99.90
23991;DHT22;12205;50.600;4.608;2023-07-22T13:28:15;23.50;99.90
23991;DHT22;12205;50.600;4.608;2023-07-22T13:30:42;23.30;99.90
23991;DHT22;12205;50.600;4.608;2023-07-22T13:33:11;23.20;99.90
23991;DHT22;12205;50.600;4.608;2023-07-22T13:35:38;23.40;99.90
23991;DHT22;12205;50.600;4.608;2023-07-22T13:38:05;23.50;99.90
23991;DHT22;12205;50.600;4.608;2023-07-22T13:40:33;23.70;99.90
23991;DHT22;12205;50.600;4.608;2023-07-22T13:43:00;24.00;99.90
23991;DHT22;12205;50.600;4.608;2023-07-22T13:45:27;24.20;99.90
23991;DHT22;12205;50.600;4.608;2023-07-22T13:47:54;24.00;99.90
23991;DHT22;12205;50.600;4.608;2023-07-22T13:50:23;24.00;99.90
23991;DHT22;12205;50.600;4.608;2023-07-22T13:52:50;23.90;99.90
23991;DHT22;12205;50.600;4.608;2023-07-22T13:55:17;23.90;99.90
23991;DHT22;12205;50.600;4.608;2023-07-22T13:57:45;23.90;99.90
23991;DHT22;12205;50.600;4.608;2023-07-22T14:00:12;24.10;99.90
23991;DHT22;12205;50.600;4.608;2023-07-22T14:02:41;24.10;99.90
23991;DHT22;12205;50.600;4.608;2023-07-22T14:05:08;24.30;99.90
23991;DHT22;12205;50.600;4.608;2023-07-22T14:07:38;24.20;99.90
23991;DHT22;12205;50.600;4.608;2023-07-22T14:10:06;24.30;99.90
23991;DHT22;12205;50.600;4.608;2023-07-22T14:12:34;24.30;99.90
23991;DHT22;12205;50.600;4.608;2023-07-22T14:15:02;23.90;99.90
23991;DHT22;12205;50.600;4.608;2023-07-22T14:17:31;23.60;99.90
23991;DHT22;12205;50.600;4.608;2023-07-22T14:19:59;23.40;99.90
23991;DHT22;12205;50.600;4.608;2023-07-22T14:22:26;23.20;99.90
23991;DHT22;12205;50.600;4.608;2023-07-22T14:24:54;23.00;99.90
23991;DHT22;12205;50.600;4.608;2023-07-22T14:27:21;22.90;99.90
23991;DHT22;12205;50.600;4.608;2023-07-22T14:29:49;22.70;99.90
23991;DHT22;12205;50.600;4.608;2023-07-22T14:32:16;22.70;99.90
23991;DHT22;12205;50.600;4.608;2023-07-22T14:34:43;22.60;99.90
23991;DHT22;12205;50.600;4.608;2023-07-22T14:37:10;22.70;99.90
23991;DHT22;12205;50.600;4.608;2023-07-22T14:39:37;22.80;99.90
23991;DHT22;12205;50.600;4.608;2023-07-22T14:42:06;22.80;99.90
23991;DHT22;12205;50.600;4.608;2023-07-22T14:44:33;22.80;99.90
23991;DHT22;12205;50.600;4.608;2023-07-22T14:47:00;22.80;99.90
23991;DHT22;12205;50.600;4.608;2023-07-22T14:49:27;23.00;99.90
23991;DHT22;12205;50.600;4.608;2023-07-22T14:51:55;23.30;99.90
23991;DHT22;12205;50.600;4.608;2023-07-22T14:54:22;23.70;99.90
23991;DHT22;12205;50.600;4.608;2023-07-22T14:56:49;24.00;99.90
23991;DHT22;12205;50.600;4.608;2023-07-22T14:59:17;24.40;99.90
23991;DHT22;12205;50.600;4.608;2023-07-22T15:01:45;24.50;99.90
23991;DHT22;12205;50.600;4.608;2023-07-22T15:04:12;24.40;99.90
23991;DHT22;12205;50.600;4.608;2023-07-22T15:06:39;24.60;99.90
23991;DHT22;12205;50.600;4.608;2023-07-22T15:09:06;24.70;99.90
23991;DHT22;12205;50.600;4.608;2023-07-22T15:11:34;24.80;99.90
23991;DHT22;12205;50.600;4.608;2023-07-22T15:14:02;25.10;99.90
23991;DHT22;12205;50.600;4.608;2023-07-22T15:16:31;25.00;99.90
23991;DHT22;12205;50.600;4.608;2023-07-22T15:18:59;24.90;99.90
23991;DHT22;12205;50.600;4.608;2023-07-22T15:21:26;24.60;99.90
23991;DHT22;12205;50.600;4.608;2023-07-22T15:23:53;24.50;99.90
23991;DHT22;12205;50.600;4.608;2023-07-22T15:26:21;24.10;99.90
23991;DHT22;12205;50.600;4.608;2023-07-22T15:28:48;23.90;99.90
23991;DHT22;12205;50.600;4.608;2023-07-22T15:31:17;23.80;99.90
23991;DHT22;12205;50.600;4.608;2023-07-22T15:33:59;23.60;99.90
23991;DHT22;12205;50.600;4.608;2023-07-22T15:36:26;23.70;99.90